createdAt,value
2023-03-29T00:02:30.203Z,91.82
2023-03-29T00:05:01.998Z,91.93
2023-03-29T00:07:30.116Z,92.09
2023-03-29T00:09:56.752Z,92.31
2023-03-29T00:12:23.310Z,91.97
2023-03-29T00:14:49.868Z,91.86
2023-03-29T00:17:16.445Z,91.76
2023-03-29T00:19:46.804Z,91.74
2023-03-29T00:22:19.863Z,91.42
2023-03-29T00:24:47.799Z,91.02
2023-03-29T00:27:16.986Z,91.59
2023-03-29T00:29:43.506Z,91.33
2023-03-29T00:32:10.241Z,91.17
2023-03-29T00:34:36.695Z,91.61
2023-03-29T00:37:04.087Z,91.33
2023-03-29T00:39:31.094Z,91.20
2023-03-29T00:41:57.610Z,91.57
2023-03-29T00:44:55.305Z,91.66
2023-03-29T00:47:35.062Z,91.57
2023-03-29T00:50:08.413Z,90.96
2023-03-29T00:52:35.787Z,90.85
2023-03-29T00:55:10.117Z,90.50
2023-03-29T00:57:39.355Z,91.17
2023-03-29T01:00:10.083Z,90.36
2023-03-29T01:02:39.997Z,90.26
2023-03-29T01:05:13.050Z,89.85
2023-03-29T01:08:18.224Z,90.19
2023-03-29T01:10:51.377Z,89.83
2023-03-29T01:13:27.913Z,89.86
2023-03-29T01:15:57.475Z,89.66
2023-03-29T01:18:24.443Z,89.72
2023-03-29T01:21:23.522Z,89.15
2023-03-29T01:24:07.052Z,89.08
2023-03-29T01:26:48.645Z,88.90
2023-03-29T01:29:33.281Z,88.24
2023-03-29T01:32:08.913Z,87.70
2023-03-29T01:34:38.819Z,86.57
2023-03-29T01:37:09.417Z,86.25
2023-03-29T01:39:36.059Z,85.18
2023-03-29T01:42:16.865Z,85.41
2023-03-29T01:44:47.565Z,85.08
2023-03-29T01:47:30.034Z,85.46
2023-03-29T01:50:36.243Z,85.15
2023-03-29T01:53:18.994Z,85.42
2023-03-29T01:56:08.738Z,85.23
2023-03-29T01:58:40.931Z,84.68
2023-03-29T02:01:10.455Z,84.75
2023-03-29T02:03:42.737Z,85.13
2023-03-29T02:06:15.508Z,85.35
2023-03-29T02:08:43.548Z,85.41
2023-03-29T02:11:10.279Z,85.80
2023-03-29T02:13:37.079Z,85.63
2023-03-29T02:16:09.671Z,85.48
2023-03-29T02:18:36.303Z,86.04
2023-03-29T02:21:03.068Z,85.49
2023-03-29T02:23:45.361Z,85.77
2023-03-29T02:26:14.450Z,86.18
2023-03-29T02:28:42.012Z,86.37
2023-03-29T02:31:37.313Z,86.10
2023-03-29T02:34:22.035Z,86.80
2023-03-29T02:37:01.837Z,86.71
2023-03-29T02:39:32.176Z,86.92
2023-03-29T02:41:59.484Z,87.08
2023-03-29T02:44:32.035Z,87.16
2023-03-29T02:47:24.971Z,86.92
2023-03-29T02:49:51.539Z,87.26
2023-03-29T02:52:25.803Z,87.81
2023-03-29T02:54:55.628Z,87.93
2023-03-29T02:57:26.654Z,88.08
2023-03-29T02:59:55.555Z,88.23
2023-03-29T03:02:22.010Z,88.03
2023-03-29T03:04:48.485Z,88.44
2023-03-29T03:07:15.018Z,88.71
2023-03-29T03:09:41.798Z,88.30
2023-03-29T03:12:09.118Z,88.58
2023-03-29T03:14:35.575Z,88.54
2023-03-29T03:17:04.566Z,88.92
2023-03-29T03:19:31.634Z,89.02
2023-03-29T03:21:58.326Z,88.65
2023-03-29T03:24:24.857Z,88.93
2023-03-29T03:26:51.369Z,89.27
2023-03-29T03:29:17.847Z,89.44
2023-03-29T03:31:44.771Z,89.45
2023-03-29T03:34:11.517Z,89.84
2023-03-29T03:36:37.990Z,90.17
2023-03-29T03:39:07.184Z,89.97
2023-03-29T03:41:34.612Z,90.23
2023-03-29T03:44:01.746Z,90.55
2023-03-29T03:46:29.659Z,90.68
2023-03-29T03:48:56.518Z,90.62
2023-03-29T03:51:23.326Z,91.01
2023-03-29T03:53:49.958Z,90.74
2023-03-29T03:56:16.545Z,90.62
2023-03-29T03:58:43.189Z,90.88
2023-03-29T04:01:09.990Z,90.80
2023-03-29T04:03:37.658Z,90.82
2023-03-29T04:06:05.101Z,90.44
2023-03-29T04:08:32.013Z,90.96
2023-03-29T04:10:59.622Z,90.57
2023-03-29T04:13:27.187Z,90.98
2023-03-29T04:15:57.584Z,90.95
2023-03-29T04:18:25.493Z,91.06
2023-03-29T04:20:52.162Z,91.09
2023-03-29T04:23:18.728Z,90.78
2023-03-29T04:25:45.238Z,90.62
2023-03-29T04:28:12.676Z,90.62
2023-03-29T04:30:39.997Z,90.21
2023-03-29T04:33:06.750Z,89.99
2023-03-29T04:35:33.499Z,90.48
2023-03-29T04:38:00.208Z,90.52
2023-03-29T04:40:26.728Z,90.40
2023-03-29T04:42:54.428Z,90.72
2023-03-29T04:45:21.380Z,90.62
2023-03-29T04:47:48.044Z,90.62
2023-03-29T04:50:14.557Z,90.67
2023-03-29T04:52:41.367Z,90.68
2023-03-29T04:55:08.694Z,90.88
2023-03-29T04:57:35.289Z,91.08
2023-03-29T05:00:01.834Z,90.94
2023-03-29T05:02:30.965Z,90.92
2023-03-29T05:04:57.496Z,90.55
2023-03-29T05:07:24.605Z,90.71
2023-03-29T05:09:51.247Z,91.03
2023-03-29T05:12:17.734Z,90.59
2023-03-29T05:14:44.185Z,90.82
2023-03-29T05:17:10.662Z,90.50
2023-03-29T05:19:38.264Z,90.40
2023-03-29T05:22:04.884Z,90.68
2023-03-29T05:24:31.719Z,90.34
2023-03-29T05:26:58.256Z,90.41
2023-03-29T05:29:24.860Z,90.27
2023-03-29T05:31:52.606Z,90.39
2023-03-29T05:34:20.003Z,90.17
2023-03-29T05:36:46.520Z,90.12
2023-03-29T05:39:13.018Z,90.49
2023-03-29T05:41:39.826Z,90.84
2023-03-29T05:44:06.583Z,90.56
2023-03-29T05:46:33.032Z,90.19
2023-03-29T05:48:59.494Z,90.71
2023-03-29T05:51:25.928Z,90.50
2023-03-29T05:53:52.526Z,90.60
2023-03-29T05:56:19.568Z,90.23
2023-03-29T05:58:49.468Z,90.19
2023-03-29T06:01:17.792Z,90.10
2023-03-29T06:03:46.131Z,90.09
2023-03-29T06:06:16.179Z,90.20
2023-03-29T06:08:43.333Z,90.34
2023-03-29T06:11:11.572Z,90.40
2023-03-29T06:13:39.005Z,90.05
2023-03-29T06:16:10.558Z,90.02
2023-03-29T06:18:38.181Z,89.85
2023-03-29T06:21:05.104Z,89.57
2023-03-29T06:23:32.042Z,89.58
2023-03-29T06:26:00.069Z,89.67
2023-03-29T06:28:26.798Z,89.24
2023-03-29T06:30:56.639Z,89.00
2023-03-29T06:33:24.192Z,88.63
2023-03-29T06:35:50.715Z,88.80
2023-03-29T06:38:17.357Z,88.54
2023-03-29T06:40:44.691Z,88.26
2023-03-29T06:43:11.241Z,88.29
2023-03-29T06:45:38.806Z,87.94
2023-03-29T06:48:07.699Z,88.30
2023-03-29T06:50:35.110Z,88.37
2023-03-29T06:53:02.233Z,88.36
2023-03-29T06:55:28.808Z,88.67
2023-03-29T06:57:55.664Z,88.84
2023-03-29T07:00:28.440Z,88.93
2023-03-29T07:02:56.579Z,89.61
2023-03-29T07:05:24.045Z,90.31
2023-03-29T07:07:57.115Z,90.29
2023-03-29T07:10:32.834Z,90.94
2023-03-29T07:13:03.522Z,90.33
2023-03-29T07:15:30.043Z,90.60
2023-03-29T07:17:57.527Z,90.32
2023-03-29T07:20:24.960Z,90.19
2023-03-29T07:22:51.781Z,90.52
2023-03-29T07:25:18.854Z,89.55
2023-03-29T07:27:46.420Z,89.48
2023-03-29T07:30:18.573Z,89.48
2023-03-29T07:32:46.492Z,89.07
2023-03-29T07:35:14.820Z,88.77
2023-03-29T07:37:42.865Z,89.13
2023-03-29T07:40:24.150Z,88.74
2023-03-29T07:42:54.120Z,88.35
2023-03-29T07:45:26.840Z,87.85
2023-03-29T07:47:57.561Z,87.44
2023-03-29T07:50:25.753Z,87.60
2023-03-29T07:52:52.666Z,86.81
2023-03-29T07:55:19.609Z,86.79
2023-03-29T07:57:46.109Z,86.70
2023-03-29T08:00:16.994Z,86.33
2023-03-29T08:02:45.491Z,86.12
2023-03-29T08:05:13.827Z,86.14
2023-03-29T08:07:41.841Z,86.40
2023-03-29T08:10:11.210Z,84.97
2023-03-29T08:12:37.804Z,84.75
2023-03-29T08:15:05.469Z,85.38
2023-03-29T08:17:32.951Z,85.69
2023-03-29T08:19:59.570Z,85.68
2023-03-29T08:22:26.195Z,85.06
2023-03-29T08:24:52.974Z,85.80
2023-03-29T08:27:20.130Z,85.97
2023-03-29T08:29:47.146Z,85.50
2023-03-29T08:32:14.183Z,85.35
2023-03-29T08:34:41.016Z,85.42
2023-03-29T08:37:08.554Z,84.82
2023-03-29T08:39:35.189Z,84.60
2023-03-29T08:42:33.907Z,85.53
2023-03-29T08:45:09.445Z,85.44
2023-03-29T08:47:50.005Z,84.82
2023-03-29T08:50:18.245Z,84.32
2023-03-29T08:52:51.574Z,84.33
2023-03-29T08:55:31.956Z,84.62
2023-03-29T08:58:01.513Z,84.88
2023-03-29T09:00:37.647Z,85.26
2023-03-29T09:03:14.891Z,86.24
2023-03-29T09:05:46.119Z,84.68
2023-03-29T09:08:16.585Z,84.83
2023-03-29T09:10:48.408Z,85.47
2023-03-29T09:13:28.266Z,85.71
2023-03-29T09:16:06.021Z,85.06
2023-03-29T09:19:10.103Z,86.17
2023-03-29T09:22:19.860Z,85.73
2023-03-29T09:25:14.128Z,85.60
2023-03-29T09:28:04.550Z,85.76
2023-03-29T09:30:36.952Z,85.25
2023-03-29T09:33:09.434Z,86.12
2023-03-29T09:35:41.167Z,84.31
2023-03-29T09:38:12.536Z,84.35
2023-03-29T09:40:47.120Z,84.37
2023-03-29T09:43:18.435Z,84.63
2023-03-29T09:45:50.106Z,85.19
2023-03-29T09:48:19.627Z,85.21
2023-03-29T09:50:51.150Z,86.06
2023-03-29T09:53:19.336Z,85.80
2023-03-29T09:55:50.337Z,85.04
2023-03-29T09:58:20.407Z,85.32
2023-03-29T10:00:48.601Z,85.63
2023-03-29T10:03:24.452Z,86.06
2023-03-29T10:05:54.513Z,86.64
2023-03-29T10:08:27.818Z,86.77
2023-03-29T10:10:57.469Z,86.53
2023-03-29T10:13:30.527Z,86.04
2023-03-29T10:16:05.946Z,85.64
2023-03-29T10:18:34.145Z,85.63
2023-03-29T10:21:03.926Z,84.76
2023-03-29T10:23:36.849Z,84.78
2023-03-29T10:26:07.797Z,84.45
2023-03-29T10:28:36.550Z,84.06
2023-03-29T10:31:06.086Z,84.71
2023-03-29T10:33:34.979Z,83.23
2023-03-29T10:36:06.853Z,83.85
2023-03-29T10:38:37.036Z,83.85
2023-03-29T10:41:10.757Z,84.94
2023-03-29T10:43:42.844Z,85.73
2023-03-29T10:46:13.438Z,84.94
2023-03-29T10:48:46.345Z,86.39
2023-03-29T10:51:14.883Z,86.07
2023-03-29T10:53:42.290Z,87.28
2023-03-29T10:56:08.727Z,86.98
2023-03-29T10:59:04.167Z,87.29
2023-03-29T11:01:44.850Z,87.83
2023-03-29T11:04:36.394Z,88.66
2023-03-29T11:07:31.436Z,87.53
2023-03-29T11:10:24.783Z,88.95
2023-03-29T11:13:33.024Z,90.09
2023-03-29T11:16:36.253Z,91.08
2023-03-29T11:19:23.423Z,91.74
2023-03-29T11:22:22.938Z,92.33
2023-03-29T11:24:55.821Z,92.13
2023-03-29T11:27:44.870Z,92.37
2023-03-29T11:30:31.724Z,91.04
2023-03-29T11:33:01.462Z,91.15
2023-03-29T11:35:44.900Z,91.92
2023-03-29T11:38:25.329Z,91.12
2023-03-29T11:40:55.281Z,89.00
2023-03-29T11:43:27.929Z,89.91
2023-03-29T11:46:09.285Z,89.59
2023-03-29T11:48:42.055Z,87.68
2023-03-29T11:51:15.502Z,87.03
2023-03-29T11:53:53.378Z,86.16
2023-03-29T11:56:29.180Z,87.03
2023-03-29T11:59:03.024Z,86.41
2023-03-29T12:01:42.297Z,86.86
2023-03-29T12:04:22.377Z,87.10
2023-03-29T12:06:57.743Z,87.33
2023-03-29T12:09:38.573Z,87.57
2023-03-29T12:12:16.631Z,88.04
2023-03-29T12:14:59.086Z,87.05
2023-03-29T12:17:34.184Z,87.95
2023-03-29T12:20:11.392Z,88.84
2023-03-29T12:22:38.304Z,88.49
2023-03-29T12:25:06.730Z,88.24
2023-03-29T12:27:52.395Z,88.29
2023-03-29T12:30:47.349Z,88.85
2023-03-29T12:33:43.165Z,89.37
2023-03-29T12:36:24.938Z,89.78
2023-03-29T12:38:52.430Z,90.42
2023-03-29T12:41:21.948Z,91.23
2023-03-29T12:43:48.816Z,90.57
2023-03-29T12:46:19.807Z,91.86
2023-03-29T12:48:57.211Z,91.42
2023-03-29T12:51:32.217Z,91.34
2023-03-29T12:54:26.808Z,91.27
2023-03-29T12:57:18.131Z,92.07
2023-03-29T12:59:47.880Z,91.00
2023-03-29T13:02:14.357Z,91.54
2023-03-29T13:04:44.012Z,91.45
2023-03-29T13:07:22.566Z,90.51
2023-03-29T13:09:57.827Z,90.34
2023-03-29T13:12:35.082Z,90.29
2023-03-29T13:15:26.767Z,89.86
2023-03-29T13:18:00.216Z,90.32
2023-03-29T13:20:46.445Z,90.50
2023-03-29T13:23:26.405Z,89.54
2023-03-29T13:26:32.723Z,89.81
2023-03-29T13:29:33.683Z,88.84
2023-03-29T13:32:13.324Z,88.38
2023-03-29T13:34:56.337Z,87.35
2023-03-29T13:37:54.466Z,88.18
2023-03-29T13:40:29.738Z,87.31
2023-03-29T13:43:20.870Z,86.86
2023-03-29T13:45:56.502Z,86.79
2023-03-29T13:48:32.649Z,86.69
2023-03-29T13:51:08.246Z,86.34
2023-03-29T13:53:40.221Z,87.11
2023-03-29T13:56:14.343Z,85.81
2023-03-29T13:59:15.844Z,85.34
2023-03-29T14:01:50.491Z,85.62
2023-03-29T14:04:24.785Z,84.39
2023-03-29T14:06:54.463Z,85.91
2023-03-29T14:09:26.066Z,84.94
2023-03-29T14:11:53.185Z,83.96
2023-03-29T14:14:24.690Z,83.75
2023-03-29T14:16:51.430Z,82.62
2023-03-29T14:19:38.041Z,83.11
2023-03-29T14:22:13.133Z,83.50
2023-03-29T14:24:48.038Z,83.39
2023-03-29T14:27:15.815Z,83.44
2023-03-29T14:29:45.770Z,84.09
2023-03-29T14:32:27.678Z,82.03
2023-03-29T14:34:54.234Z,82.20
2023-03-29T14:37:26.985Z,81.14
2023-03-29T14:39:54.645Z,80.32
2023-03-29T14:42:26.957Z,80.35
2023-03-29T14:45:01.946Z,79.96
2023-03-29T14:47:31.186Z,80.07
2023-03-29T14:50:01.765Z,80.01
2023-03-29T14:52:30.354Z,80.40
2023-03-29T14:54:59.636Z,79.13
2023-03-29T14:57:32.526Z,78.83
2023-03-29T15:00:01.220Z,79.44
2023-03-29T15:02:33.250Z,78.54
2023-03-29T15:05:07.608Z,78.57
2023-03-29T15:07:37.087Z,78.81
2023-03-29T15:10:06.346Z,78.57
2023-03-29T15:12:33.857Z,76.91
2023-03-29T15:15:01.458Z,77.67
2023-03-29T15:17:47.650Z,77.41
2023-03-29T15:20:51.329Z,79.18
2023-03-29T15:23:22.586Z,79.42
2023-03-29T15:25:56.662Z,78.06
2023-03-29T15:28:33.935Z,78.38
2023-03-29T15:33:38.427Z,76.49
2023-03-29T15:36:07.525Z,77.59
2023-03-29T15:38:43.227Z,76.96
2023-03-29T15:41:12.352Z,77.60
2023-03-29T15:43:38.817Z,77.87
2023-03-29T15:46:05.527Z,77.59
2023-03-29T15:48:33.666Z,77.59
2023-03-29T15:51:03.958Z,78.06
2023-03-29T15:53:32.746Z,77.52
2023-03-29T15:56:01.645Z,77.95
2023-03-29T15:58:31.580Z,78.36
2023-03-29T16:01:19.073Z,79.12
2023-03-29T16:03:47.875Z,79.54
2023-03-29T16:06:16.031Z,79.28
2023-03-29T16:08:42.466Z,79.04
2023-03-29T16:11:09.160Z,79.48
2023-03-29T16:13:35.923Z,79.28
2023-03-29T16:16:02.771Z,79.87
2023-03-29T16:18:29.619Z,79.12
2023-03-29T16:20:56.880Z,79.55
2023-03-29T16:23:23.370Z,79.82
2023-03-29T16:25:49.962Z,79.83
2023-03-29T16:28:16.673Z,80.08
2023-03-29T16:30:43.578Z,79.76
2023-03-29T16:33:11.264Z,79.56
2023-03-29T16:35:42.386Z,80.17
2023-03-29T16:38:09.299Z,80.28
2023-03-29T16:40:36.643Z,80.84
2023-03-29T16:43:03.677Z,81.03
2023-03-29T16:45:30.597Z,81.54
2023-03-29T16:47:57.451Z,81.60
2023-03-29T16:50:24.377Z,82.06
2023-03-29T16:52:53.742Z,82.51
2023-03-29T16:55:20.304Z,82.47
2023-03-29T16:57:47.873Z,82.99
2023-03-29T17:00:16.922Z,82.68
2023-03-29T17:02:44.050Z,83.17
2023-03-29T17:05:12.035Z,83.05
2023-03-29T17:07:42.280Z,83.41
2023-03-29T17:10:10.722Z,84.03
2023-03-29T17:12:37.204Z,83.63
2023-03-29T17:15:07.606Z,84.74
2023-03-29T17:17:34.786Z,84.21
2023-03-29T17:20:01.365Z,84.79
2023-03-29T17:22:27.853Z,83.79
2023-03-29T17:24:54.370Z,84.91
2023-03-29T17:27:21.209Z,85.15
2023-03-29T17:29:47.948Z,85.11
2023-03-29T17:32:14.411Z,84.90
2023-03-29T17:34:41.672Z,85.24
2023-03-29T17:37:09.646Z,85.64
2023-03-29T17:39:37.619Z,85.46
2023-03-29T17:42:05.286Z,85.50
2023-03-29T17:44:33.271Z,86.33
2023-03-29T17:47:00.619Z,86.37
2023-03-29T17:49:27.207Z,85.64
2023-03-29T17:51:53.674Z,85.83
2023-03-29T17:54:20.205Z,86.35
2023-03-29T17:56:46.892Z,86.92
2023-03-29T17:59:13.381Z,85.82
2023-03-29T18:01:40.136Z,86.37
2023-03-29T18:04:06.795Z,87.48
2023-03-29T18:06:33.357Z,87.18
2023-03-29T18:09:01.534Z,87.74
2023-03-29T18:11:28.465Z,87.76
2023-03-29T18:13:59.409Z,87.70
2023-03-29T18:16:26.215Z,88.11
2023-03-29T18:18:52.726Z,87.99
2023-03-29T18:21:19.996Z,88.91
2023-03-29T18:23:47.939Z,88.80
2023-03-29T18:26:17.577Z,89.63
2023-03-29T18:28:48.842Z,89.57
2023-03-29T18:31:15.973Z,90.13
2023-03-29T18:33:42.738Z,89.82
2023-03-29T18:36:12.686Z,89.85
2023-03-29T18:38:43.019Z,90.83
2023-03-29T18:41:12.097Z,90.82
2023-03-29T18:43:39.788Z,90.94
2023-03-29T18:46:07.721Z,91.25
2023-03-29T18:48:43.894Z,91.02
2023-03-29T18:51:12.516Z,91.79
2023-03-29T18:53:41.545Z,92.15
2023-03-29T18:56:08.086Z,92.21
2023-03-29T18:58:35.271Z,92.19
2023-03-29T19:01:03.659Z,92.40
2023-03-29T19:03:34.735Z,92.72
2023-03-29T19:06:02.058Z,92.73
2023-03-29T19:08:28.799Z,92.76
2023-03-29T19:11:01.663Z,92.90
2023-03-29T19:13:28.186Z,93.38
2023-03-29T19:15:54.964Z,93.74
2023-03-29T19:18:21.519Z,93.93
2023-03-29T19:20:50.883Z,93.78
2023-03-29T19:23:18.134Z,94.41
2023-03-29T19:25:55.347Z,94.68
2023-03-29T19:28:22.038Z,95.42
2023-03-29T19:30:48.861Z,95.12
2023-03-29T19:33:16.098Z,95.26
2023-03-29T19:35:42.834Z,95.60
2023-03-29T19:38:09.457Z,95.90
2023-03-29T19:40:36.572Z,95.62
2023-03-29T19:43:03.476Z,95.95
2023-03-29T19:45:30.147Z,96.13
2023-03-29T19:47:58.305Z,96.29
2023-03-29T19:50:26.307Z,97.05
2023-03-29T19:52:58.549Z,97.37
2023-03-29T19:55:25.945Z,98.16
2023-03-29T19:57:52.509Z,98.78
2023-03-29T20:00:24.337Z,98.87
2023-03-29T20:02:52.355Z,99.07
2023-03-29T20:05:20.159Z,99.38
2023-03-29T20:07:46.748Z,99.57
2023-03-29T20:10:13.442Z,100.00
2023-03-29T20:12:39.923Z,99.99
2023-03-29T20:15:07.427Z,100.00
2023-03-29T20:17:35.583Z,100.00
2023-03-29T20:20:08.243Z,100.00
2023-03-29T20:22:34.744Z,100.00
2023-03-29T20:25:01.294Z,100.00
2023-03-29T20:27:29.380Z,100.00
2023-03-29T20:29:56.011Z,100.00
2023-03-29T20:32:22.997Z,100.00
2023-03-29T20:34:49.684Z,100.00
2023-03-29T20:37:16.168Z,100.00
2023-03-29T20:39:43.046Z,100.00
2023-03-29T20:42:09.595Z,100.00
2023-03-29T20:44:36.621Z,100.00
2023-03-29T20:47:04.891Z,100.00
2023-03-29T20:49:38.312Z,100.00
2023-03-29T20:52:17.573Z,100.00
2023-03-29T20:54:45.345Z,100.00
2023-03-29T20:57:15.787Z,100.00
2023-03-29T20:59:43.768Z,100.00
2023-03-29T21:02:20.793Z,100.00
2023-03-29T21:04:52.106Z,100.00
2023-03-29T21:07:20.309Z,100.00
2023-03-29T21:09:50.418Z,100.00
2023-03-29T21:12:17.478Z,100.00
2023-03-29T21:14:44.716Z,100.00
2023-03-29T21:17:11.475Z,100.00
2023-03-29T21:19:39.432Z,100.00
2023-03-29T21:22:06.664Z,100.00
2023-03-29T21:24:33.678Z,100.00
2023-03-29T21:27:00.525Z,100.00
2023-03-29T21:29:27.089Z,100.00
2023-03-29T21:31:53.840Z,100.00
2023-03-29T21:34:20.648Z,100.00
2023-03-29T21:36:47.232Z,100.00
2023-03-29T21:39:13.841Z,100.00
2023-03-29T21:41:40.309Z,100.00
2023-03-29T21:44:06.784Z,100.00
2023-03-29T21:46:33.298Z,100.00
2023-03-29T21:48:59.803Z,100.00
2023-03-29T21:51:26.997Z,100.00
2023-03-29T21:53:53.498Z,100.00
2023-03-29T21:56:19.952Z,100.00
2023-03-29T21:58:46.469Z,100.00
2023-03-29T22:01:13.000Z,100.00
2023-03-29T22:03:39.546Z,100.00
2023-03-29T22:06:10.600Z,100.00
2023-03-29T22:08:38.921Z,100.00
2023-03-29T22:11:11.038Z,100.00
2023-03-29T22:13:37.830Z,100.00
2023-03-29T22:16:05.222Z,100.00
2023-03-29T22:18:42.965Z,100.00
2023-03-29T22:21:19.892Z,100.00
2023-03-29T22:23:49.863Z,100.00
2023-03-29T22:26:18.797Z,100.00
2023-03-29T22:28:45.444Z,100.00
2023-03-29T22:31:14.872Z,100.00
2023-03-29T22:33:42.486Z,99.94
2023-03-29T22:36:27.353Z,99.74
2023-03-29T22:38:54.559Z,98.94
2023-03-29T22:41:25.985Z,99.17
2023-03-29T22:43:54.179Z,98.83
2023-03-29T22:46:21.368Z,98.35
2023-03-29T22:48:48.222Z,97.42
2023-03-29T22:51:16.167Z,97.19
2023-03-29T22:53:42.694Z,96.57
2023-03-29T22:56:09.631Z,96.36
2023-03-29T22:58:37.123Z,95.13
2023-03-29T23:01:04.182Z,94.55
2023-03-29T23:03:31.137Z,94.48
2023-03-29T23:06:02.264Z,93.88
2023-03-29T23:08:30.860Z,93.54
2023-03-29T23:10:58.227Z,93.20
2023-03-29T23:13:29.255Z,92.85
2023-03-29T23:16:01.554Z,92.32
2023-03-29T23:18:29.496Z,91.45
2023-03-29T23:20:57.715Z,91.32
2023-03-29T23:23:25.713Z,91.11
2023-03-29T23:25:53.546Z,90.47
2023-03-29T23:28:23.548Z,90.17
2023-03-29T23:31:12.142Z,90.07
2023-03-29T23:33:42.759Z,88.67
2023-03-29T23:36:12.278Z,88.79
2023-03-29T23:38:39.824Z,88.50
2023-03-29T23:41:10.351Z,87.90
2023-03-29T23:43:43.688Z,87.18
2023-03-29T23:46:12.433Z,87.00
2023-03-29T23:48:39.253Z,86.62
2023-03-29T23:51:07.979Z,86.83
2023-03-29T23:53:34.464Z,86.64
2023-03-29T23:56:03.338Z,85.66
2023-03-29T23:58:35.057Z,85.67
